createdAt,value
2022-09-10T00:01:17.734Z,19.787187680328497
2022-09-10T00:04:17.040Z,19.7518587461288
2022-09-10T00:07:16.789Z,19.744150616858768
2022-09-10T00:11:16.420Z,19.735800144221866
2022-09-10T00:14:19.807Z,19.704967636527726
2022-09-10T00:17:17.014Z,19.714602794056646
2022-09-10T00:21:19.170Z,19.69533248002199
2022-09-10T00:24:17.568Z,19.744150616858768
2022-09-10T00:27:17.545Z,19.706252324139133
2022-09-10T00:31:17.835Z,19.692120761414117
2022-09-10T00:34:18.495Z,19.665784673117834
2022-09-10T00:37:16.810Z,19.646514369451417
2022-09-10T00:41:17.435Z,19.677346857282192
2022-09-10T00:45:25.180Z,19.68698201187799
2022-09-10T00:47:22.642Z,19.704967636527726
2022-09-10T00:51:16.910Z,19.754428122697664
2022-09-10T00:54:20.919Z,19.778837203730745
2022-09-10T00:57:20.228Z,19.763420941261664
2022-09-10T01:01:17.658Z,19.825086006854054
2022-09-10T01:04:16.601Z,19.850779796553343
2022-09-10T01:07:18.000Z,19.8225166282843
2022-09-10T01:11:30.902Z,19.893816910600073
2022-09-10T01:14:31.523Z,19.89510160088539
2022-09-10T01:17:25.111Z,19.914371957347974
2022-09-10T01:21:23.060Z,20.02035899104967
2022-09-10T01:41:19.850Z,20.300422294086548
2022-09-10T01:44:42.359Z,20.306203426420687
2022-09-10T01:47:33.663Z,20.32418917381583
2022-09-10T01:51:27.011Z,20.382642877472335
2022-09-10T01:54:26.975Z,20.45394359994716
2022-09-10T01:57:30.491Z,20.543230169265826
2022-09-10T02:01:23.318Z,20.669130804792893
2022-09-10T02:04:20.675Z,20.723730624508242
2022-09-10T02:07:20.370Z,20.732081188067333
2022-09-10T02:11:16.698Z,20.809163349516986
2022-09-10T02:14:17.529Z,20.872756182009834
2022-09-10T02:31:16.687Z,21.0487608194715
2022-09-10T02:34:16.514Z,21.00315374560605
2022-09-10T02:37:17.439Z,21.044906699666534
2022-09-10T02:41:15.789Z,21.08987144091079
2022-09-10T02:44:17.453Z,21.078951430274266
2022-09-10T02:47:16.542Z,21.10336086762918
2022-09-10T02:51:16.217Z,21.107214989917065
2022-09-10T02:54:17.102Z,21.146398575803325
2022-09-10T02:57:16.815Z,21.156033886400202
2022-09-10T03:01:21.698Z,21.19264807599975
2022-09-10T03:04:17.938Z,21.23889759977028
2022-09-10T03:07:20.670Z,21.21063399910927
2022-09-10T03:11:17.959Z,21.21448812595372
2022-09-10T03:14:20.613Z,21.22155402559374
2022-09-10T03:17:16.428Z,21.23761289045833
2022-09-10T03:21:19.175Z,21.260737660856467
2022-09-10T03:24:16.867Z,21.242109373129733
2022-09-10T03:27:16.926Z,21.218342252961882
2022-09-10T03:31:17.477Z,21.222838734678316
2022-09-10T03:34:17.221Z,21.179800990247166
2022-09-10T03:37:16.915Z,21.182370407252165
2022-09-10T03:41:16.483Z,21.1907210130209
2022-09-10T03:44:17.621Z,21.18686688718599
2022-09-10T03:47:16.813Z,21.130982080976537
2022-09-10T03:51:16.842Z,21.120062065392357
2022-09-10T03:54:16.898Z,21.134193850516112
2022-09-10T03:57:17.979Z,21.077666723226958
2022-09-10T04:01:17.468Z,21.025636103097348
2022-09-10T04:04:17.032Z,20.942772584486466
2022-09-10T04:07:17.013Z,20.902304381970318
2022-09-10T04:11:15.999Z,20.831003307166338
2022-09-10T04:14:16.270Z,20.746212912764257
2022-09-10T04:17:16.920Z,20.687116624129068
2022-09-10T04:21:16.806Z,20.662707298751137
2022-09-10T04:24:17.257Z,20.644721484253477
2022-09-10T04:27:17.232Z,20.607465165564008
2022-09-10T04:31:19.385Z,20.593975812569262
2022-09-10T04:34:18.850Z,20.54644191800071
2022-09-10T04:37:19.923Z,20.515609134838815
2022-09-10T04:41:18.441Z,20.481564615602203
2022-09-10T04:44:20.821Z,20.44752010913944
2022-09-10T04:47:17.666Z,20.409621522630278
2022-09-10T04:51:18.609Z,20.382642877472335
2022-09-10T04:54:17.162Z,20.383285226073347
2022-09-10T04:57:17.229Z,20.385854620522878
2022-09-10T05:01:17.614Z,20.32161978111253
2022-09-10T05:04:17.222Z,20.295283510098763
2022-09-10T05:07:17.253Z,20.227836997236956
2022-09-10T05:11:16.166Z,20.219486480084832
2022-09-10T05:14:17.401Z,20.211135963701235
2022-09-10T05:17:16.375Z,20.14882828879208
2022-09-10T05:21:16.381Z,20.206639532120697
2022-09-10T05:24:17.040Z,20.164886963799653
2022-09-10T05:27:17.903Z,20.19443493323961
2022-09-10T05:31:17.609Z,20.198289016919443
2022-09-10T05:34:16.478Z,20.211778311088075
2022-09-10T05:37:17.004Z,20.228479344742027
2022-09-10T05:41:16.272Z,20.239399253024022
2022-09-10T05:44:17.770Z,20.25738498717692
2022-09-10T05:47:16.610Z,20.256742639467213
2022-09-10T05:51:18.753Z,20.256742639467213
2022-09-10T05:54:18.389Z,20.262523769018298
2022-09-10T05:57:18.715Z,20.26188142127221
2022-09-10T06:01:24.759Z,20.271516637941023
2022-09-10T06:04:20.250Z,20.315196299672607
2022-09-10T06:07:19.178Z,20.377504088827937
2022-09-10T06:11:16.773Z,20.399343942576614
2022-09-10T06:14:18.056Z,20.457797694650072
2022-09-10T06:17:18.676Z,20.498265698914565
2022-09-10T06:21:18.346Z,20.57599001169583
2022-09-10T06:24:17.554Z,20.641509732039776
2022-09-10T06:27:17.977Z,20.683262519685467
2022-09-10T06:31:18.341Z,20.737862347904592
2022-09-10T06:34:19.529Z,20.826506844867616
2022-09-10T06:37:16.780Z,20.898450268386295
2022-09-10T06:41:16.455Z,20.976174923969758
2022-09-10T06:44:16.901Z,21.0487608194715
2022-09-10T06:48:06.809Z,21.136120912294427
2022-09-10T06:51:16.507Z,21.229904634968626
2022-09-10T06:54:16.565Z,21.297351892706594
2022-09-10T06:57:16.699Z,21.387924003392982
2022-09-10T07:01:18.214Z,21.46115258451355
2022-09-10T07:04:16.299Z,21.544016576530066
2022-09-10T07:07:16.342Z,21.617245283624744
2022-09-10T07:11:16.112Z,21.751498066791463
2022-09-10T07:14:16.406Z,21.842712989734718
2022-09-10T07:17:16.161Z,21.90309474972928
2022-09-10T07:21:17.747Z,22.02193130963069
2022-09-10T07:24:16.856Z,22.106722896162047
2022-09-10T07:27:16.529Z,22.166462470614352
2022-09-10T07:31:23.174Z,22.253181277708155
2022-09-10T07:34:21.663Z,22.30392787733617
2022-09-10T07:37:20.118Z,22.378441923158608
2022-09-10T07:41:16.758Z,22.470942203101366
2022-09-10T07:44:18.415Z,22.53003965354328
2022-09-10T07:47:17.754Z,22.600057334860413
2022-09-10T07:51:19.626Z,22.735596302675912
2022-09-10T07:54:17.802Z,22.819746190249226
2022-09-10T07:57:17.362Z,22.92702135092113
2022-09-10T08:01:16.809Z,23.061918439562213
2022-09-10T08:04:17.046Z,23.173690464929678
2022-09-10T08:07:19.606Z,23.26554918654956
2022-09-10T08:11:18.634Z,23.378606202353787
2022-09-10T08:14:16.856Z,23.47431935424829
2022-09-10T08:17:17.102Z,23.542410651283355
2022-09-10T08:21:17.919Z,23.63362737455318
2022-09-10T08:24:44.957Z,23.708784884458236
2022-09-10T08:27:16.793Z,23.789081438180073
2022-09-10T08:31:16.958Z,23.869378062956184
2022-09-10T08:34:17.428Z,23.94774763725445
2022-09-10T08:37:17.177Z,24.02162065860466
2022-09-10T08:41:26.916Z,24.115407363657503
2022-09-10T08:44:28.906Z,24.15009562158957
2022-09-10T08:47:26.199Z,24.22782306250965
2022-09-10T08:51:25.990Z,24.298484430212646
2022-09-10T08:54:23.342Z,24.45072774579894
2022-09-10T08:57:25.464Z,24.55029629709834
2022-09-10T09:01:30.875Z,24.698685760161972
2022-09-10T09:04:33.216Z,24.837439763339717
2022-09-10T09:07:20.887Z,24.94343254759451
2022-09-10T09:11:32.789Z,25.087968362007814
2022-09-10T09:14:36.892Z,25.195246204220258
2022-09-10T09:17:35.549Z,25.24599444921514
2022-09-10T09:21:23.607Z,25.375113529636383
2022-09-10T09:24:22.583Z,25.492669867113364
2022-09-10T09:27:18.539Z,25.58517332170195
2022-09-10T09:31:21.770Z,25.754763233356424
2022-09-10T09:34:27.317Z,25.91792958388105
2022-09-10T09:37:19.868Z,26.00272481102875
2022-09-10T09:41:24.124Z,26.1838785162985
2022-09-10T09:44:25.992Z,26.27445550454586
2022-09-10T09:47:16.968Z,26.395224962844168
2022-09-10T09:51:18.496Z,26.63355239731063
2022-09-10T09:55:02.981Z,26.771666965208077
2022-09-10T09:57:19.705Z,26.927768799652405
2022-09-10T10:01:21.035Z,27.02734006888577
2022-09-10T10:04:42.246Z,27.211065407280785
2022-09-10T10:07:24.821Z,27.40442709173694
2022-09-10T10:11:19.891Z,27.52262845723635
2022-09-10T10:14:34.614Z,27.720487609255724
2022-09-10T10:17:37.014Z,27.78215808248533
2022-09-10T10:21:19.121Z,28.019204354100747
2022-09-10T10:24:29.884Z,28.148327380442062
2022-09-10T10:27:20.587Z,28.22991267090483
2022-09-10T10:31:50.857Z,28.420706904219696
2022-09-10T10:34:39.411Z,28.40079233586521
2022-09-10T10:37:31.584Z,28.504862063906423
2022-09-10T10:41:50.167Z,28.720068361569794
2022-09-10T10:44:30.356Z,28.786236370592906
2022-09-10T10:47:34.140Z,28.96097153896344
2022-09-10T10:51:30.128Z,29.183887848760058
2022-09-10T10:54:32.054Z,29.291812944751292
2022-09-10T10:57:28.095Z,29.382393035094083
2022-09-10T11:01:22.494Z,29.648352120664732
2022-09-10T11:04:31.089Z,29.727369100618308
2022-09-10T11:07:25.112Z,29.91302715351494
2022-09-10T11:11:20.250Z,30.121170197281117
2022-09-10T11:14:25.271Z,30.284986817432582
2022-09-10T11:17:25.059Z,30.365931609483958
2022-09-10T11:21:23.815Z,30.69035392121159
2022-09-10T11:24:23.038Z,30.820123170624083
2022-09-10T11:27:22.160Z,30.83168677611038
2022-09-10T11:31:28.080Z,30.811129256264486
2022-09-10T11:34:25.150Z,30.757165788824295
2022-09-10T11:37:25.905Z,30.85095945519506
2022-09-10T11:41:20.760Z,30.832971621255364
2022-09-10T11:44:36.869Z,30.84068069250725
2022-09-10T11:47:22.647Z,31.011565273395625
2022-09-10T11:51:25.566Z,30.897856324730675
2022-09-10T11:54:34.967Z,31.017347088150927
2022-09-10T11:57:30.491Z,31.24540785286672
2022-09-10T12:01:38.833Z,31.3893112781735
2022-09-10T12:04:39.227Z,31.636645823531218
2022-09-10T12:07:34.275Z,31.508160261295053
2022-09-10T12:11:25.484Z,31.638573108349465
2022-09-10T12:14:47.430Z,31.86149599513883
2022-09-10T12:17:22.930Z,31.903896375641125
2022-09-10T12:21:28.674Z,31.927666294587926
2022-09-10T12:24:26.873Z,31.777980152084275
2022-09-10T12:27:19.355Z,31.752925414154106
2022-09-10T12:31:19.647Z,31.57882729801495
2022-09-10T12:34:19.077Z,31.46832977393642
2022-09-10T12:37:24.264Z,31.34691113807794
2022-09-10T12:51:29.958Z,31.15611075278175
2022-09-10T12:54:37.155Z,30.987795594382625
2022-09-10T12:57:33.898Z,30.980086510634283
2022-09-10T13:01:36.118Z,30.996789526249994
2022-09-10T13:04:25.286Z,31.063601619453767
2022-09-10T13:07:23.663Z,31.02377132719994
2022-09-10T13:11:22.282Z,30.980728934254966
2022-09-10T13:14:22.294Z,30.79956565339753
2022-09-10T13:17:38.457Z,30.659517691210294
2022-09-10T13:31:25.753Z,30.610051260801264
2022-09-10T13:34:57.028Z,30.62289968169207
2022-09-10T13:37:37.183Z,30.633178419714387
2022-09-10T13:42:56.836Z,30.77579602990918
2022-09-10T13:44:45.363Z,30.795068697124954
2022-09-10T13:47:24.065Z,30.847104919050707
2022-09-10T13:51:27.155Z,30.900426016912387
2022-09-10T13:54:29.567Z,30.904922978405466
2022-09-10T13:57:25.382Z,31.026983446894974
2022-09-10T14:01:18.970Z,31.184377451218097
2022-09-10T14:04:25.031Z,31.13940770784393
2022-09-10T14:07:21.303Z,31.152256203677098
2022-09-10T14:11:23.117Z,31.016062240395694
2022-09-10T14:14:25.770Z,31.06745616479311
2022-09-10T14:17:22.816Z,31.112425872515086
2022-09-10T14:21:19.292Z,30.87986848149594
2022-09-10T14:24:31.151Z,30.829759508427014
2022-09-10T14:27:24.179Z,30.69870540197335
2022-09-10T14:31:26.803Z,30.547094024729812
2022-09-10T14:34:31.025Z,30.435955337040014
2022-09-10T14:37:32.868Z,30.278562630679517
2022-09-10T14:41:20.617Z,30.27599295610562
2022-09-10T14:44:30.790Z,30.335737908768444
2022-09-10T14:47:28.488Z,30.241944774870444
2022-09-10T14:51:21.308Z,30.138515472476502
2022-09-10T14:54:18.640Z,29.994614030450247
2022-09-10T14:57:18.213Z,29.946432795046075
2022-09-10T15:01:17.745Z,29.978553615806685
2022-09-10T15:04:20.891Z,29.823088948972234
2022-09-10T15:07:17.456Z,29.736362907575675
2022-09-10T15:11:20.274Z,29.63871590830386
2022-09-10T15:14:18.430Z,29.575759346058838
2022-09-10T15:17:17.481Z,29.506378695395323
2022-09-10T15:21:19.088Z,29.453058416579097
2022-09-10T15:24:21.135Z,29.474900454715772
2022-09-10T15:27:19.340Z,29.50380904268568
2022-09-10T15:31:19.492Z,29.551347629592055
2022-09-10T15:34:17.685Z,29.496100084993305
2022-09-10T15:37:18.740Z,29.50894834817773
2022-09-10T15:41:17.894Z,29.518584546759758
2022-09-10T15:44:16.997Z,29.47939734557294
2022-09-10T15:47:18.005Z,29.53914177382112
2022-09-10T15:51:19.504Z,29.54877797560912
2022-09-10T15:54:17.227Z,29.576401759738747
2022-09-10T15:57:16.698Z,29.56740796863387
2022-09-10T16:01:18.586Z,29.489675954083214
2022-09-10T16:04:16.746Z,29.514087653960814
2022-09-10T16:07:17.843Z,29.43699809777354
2022-09-10T16:11:18.153Z,29.325218357617267
2022-09-10T16:14:20.012Z,29.305303590774656
2022-09-10T16:17:18.831Z,29.23785038071219
2022-09-10T16:21:20.234Z,29.172966864054708
2022-09-10T16:24:18.356Z,29.198020889741382
2022-09-10T16:27:18.722Z,29.13313740156018
2022-09-10T16:31:18.877Z,29.129925348894904
2022-09-10T16:34:20.619Z,29.157549005531564
2022-09-10T16:37:19.279Z,29.123501243905412
2022-09-10T16:41:18.495Z,28.990522372756914
2022-09-10T16:44:19.571Z,28.9506929903343
2022-09-10T16:47:20.142Z,28.884524861403406
2022-09-10T16:51:19.516Z,28.871676686621868
2022-09-10T16:54:21.368Z,28.689232801029355
2022-09-10T16:57:18.810Z,28.636555409344147
2022-09-10T17:01:17.867Z,28.547903282611877
2022-09-10T17:04:23.396Z,28.476596200040603
2022-09-10T17:07:18.427Z,28.3770233406467
2022-09-10T17:11:19.069Z,28.193938045597406
2022-09-10T17:14:19.011Z,28.128412871859563
2022-09-10T17:17:17.738Z,27.992223446429215
2022-09-10T17:21:16.990Z,27.85988863448665
2022-09-10T17:24:18.819Z,27.842543794798257
2022-09-10T17:27:22.405Z,27.703785196635
2022-09-10T17:31:16.433Z,27.51042287432292
2022-09-10T17:34:17.953Z,27.406354286678926
2022-09-10T17:37:18.745Z,27.33954488590689
2022-09-10T17:41:18.337Z,27.231622111637353
2022-09-10T17:51:20.659Z,26.925199219956994
2022-09-10T17:54:19.449Z,26.84489989113945
2022-09-10T17:57:17.857Z,26.801859480142593
2022-09-10T18:01:23.359Z,26.683016660257362
2022-09-10T18:04:19.628Z,26.71577871938971
2022-09-10T18:07:18.353Z,26.595008834483814
2022-09-10T18:11:21.395Z,26.49094129662408
2022-09-10T18:14:20.210Z,26.365032583201536
2022-09-10T18:17:19.065Z,26.40293365712869
2022-09-10T18:21:19.730Z,26.272528333641823
2022-09-10T18:24:19.823Z,26.208289326926753
2022-09-10T18:27:17.152Z,26.124136296935557
2022-09-10T18:31:19.914Z,26.048976786505953
2022-09-10T18:34:23.034Z,25.97317495014904
2022-09-10T18:37:18.432Z,25.926923013307167
2022-09-10T18:41:20.179Z,25.82799533864163
2022-09-10T18:44:21.232Z,25.83891592080918
2022-09-10T18:47:41.226Z,25.741915501680705
2022-09-10T18:51:19.837Z,25.619862141483463
2022-09-10T18:54:17.933Z,25.605729657749542
2022-09-10T18:57:18.101Z,25.551126900366306
2022-09-10T19:01:19.227Z,25.432928102807
2022-09-10T19:04:21.248Z,25.390530745546947
2022-09-10T19:07:18.581Z,25.354557245830165
2022-09-10T19:11:19.927Z,25.224153428903083
2022-09-10T19:14:21.874Z,25.15156419328205
2022-09-10T19:17:21.835Z,25.089895507755227
2022-09-10T19:21:19.531Z,25.07190881570432
2022-09-10T19:24:32.792Z,25.029511627119156
2022-09-10T19:27:18.620Z,24.96720064348192
2022-09-10T19:31:21.862Z,24.80467838234481
2022-09-10T19:34:20.562Z,24.81881074132334
2022-09-10T19:37:20.099Z,24.654361609415446
2022-09-10T19:41:22.576Z,24.608752723277213
2022-09-10T19:44:20.929Z,24.51560788618017
2022-09-10T19:47:19.294Z,24.41282748723834
2022-09-10T19:51:19.607Z,24.38006625954331
2022-09-10T19:54:19.178Z,24.332530381566905
2022-09-10T19:57:18.935Z,24.237458700319984
2022-09-10T20:01:20.873Z,24.094851365214346
2022-09-10T20:04:18.894Z,24.005561301021316
2022-09-10T20:07:18.415Z,23.950317132639704
2022-09-10T20:11:20.494Z,23.907278094534195
2022-09-10T20:14:19.831Z,23.843683135297123
2022-09-10T20:17:19.594Z,23.77430686696107
2022-09-10T20:21:20.327Z,23.695295070404246
2022-09-10T20:24:18.903Z,23.643262949267317
2022-09-10T20:27:19.973Z,23.609217256523333
2022-09-10T20:31:20.466Z,23.52378189513047
2022-09-10T20:34:21.581Z,23.406870478314612
2022-09-10T20:37:18.279Z,23.42036024949048
2022-09-10T20:41:18.071Z,23.362546958570967
2022-09-10T20:44:18.537Z,23.26554918654956
2022-09-10T20:47:19.143Z,23.151849943402702
2022-09-10T20:51:20.324Z,23.117162067076425
2022-09-10T20:54:19.148Z,23.029800066933966
2022-09-10T20:57:18.394Z,22.977768327402828
2022-09-10T21:01:22.917Z,22.876916769074523
2022-09-10T21:04:19.057Z,22.905823255224913
2022-09-10T21:07:19.195Z,22.80304467963806
2022-09-10T21:11:20.682Z,22.76899930214313
2022-09-10T21:14:19.051Z,22.74458941670746
2022-09-10T21:17:18.313Z,22.623824816948037
2022-09-10T21:21:19.940Z,22.567296761646865
2022-09-10T21:24:21.484Z,22.37779956043314
2022-09-10T21:27:18.064Z,22.34118489259854
2022-09-10T21:31:19.664Z,22.280160479040298
2022-09-10T21:34:17.906Z,22.253181277708155
2022-09-10T21:37:20.518Z,22.203719429433477
2022-09-10T21:41:22.753Z,22.144622191522284
2022-09-10T21:51:21.012Z,21.93842452155086
2022-09-10T21:54:21.376Z,21.912087781251465
2022-09-10T21:57:18.656Z,21.892174641222027
2022-09-10T22:01:21.796Z,21.83500468284037
2022-09-10T22:04:22.191Z,21.751498066791463
2022-09-10T22:07:17.301Z,21.651932586560086
2022-09-10T22:11:19.154Z,21.648078441134658
2022-09-10T22:14:18.753Z,21.6210994277405
2022-09-10T22:17:17.893Z,21.538235365329093
2022-09-10T22:21:17.023Z,21.532454154496463
2022-09-10T22:24:20.075Z,21.491985688981732
2022-09-10T22:27:17.928Z,21.406552321055734
2022-09-10T22:31:21.950Z,21.41875708297739
2022-09-10T22:34:18.884Z,21.404625253533958
2022-09-10T22:37:18.866Z,21.35387915685651
2022-09-10T22:41:16.597Z,21.29863660286437
2022-09-10T22:44:18.466Z,21.27294240316487
2022-09-10T22:47:16.272Z,21.20613751799765
2022-09-10T22:51:18.585Z,21.062892593490325
2022-09-10T22:54:17.281Z,21.08987144091079
2022-09-10T22:57:17.875Z,21.060965533267243
2022-09-10T23:01:17.831Z,21.007650216658657
2022-09-10T23:04:17.541Z,20.983240805051537
2022-09-10T23:07:17.058Z,20.947269052546837
2022-09-10T23:11:19.135Z,20.848989158589482
2022-09-10T23:14:19.099Z,20.809163349516986
2022-09-10T23:17:21.892Z,20.798243372663638
2022-09-10T23:21:17.318Z,20.678123714015328
2022-09-10T23:24:19.354Z,20.661422597597358
2022-09-10T23:27:16.648Z,20.613246317461382
2022-09-10T23:31:17.925Z,20.583055861613776
2022-09-10T23:34:18.506Z,20.530383175463157
2022-09-10T23:37:17.533Z,20.48863045816688
2022-09-10T23:41:17.284Z,20.495696301281804
2022-09-10T23:44:16.999Z,20.47064467817545
2022-09-10T23:47:16.366Z,20.47064467817545
2022-09-10T23:51:19.434Z,20.4173297084345
2022-09-10T23:54:17.595Z,20.392278106965023
2022-09-10T23:57:17.649Z,20.367868860904128
